Time;durP1;ratioP1;P1;durP2;ratioP2;P2;SDS_P1;SDS_P2;PMS_P1;PMS_P2;Temp;Humidity;BMP_temperature;BMP_pressure;BME280_temperature;BME280_humidity;BME280_pressure;Samples;Min_cycle;Max_cycle;Signal;HPM_P1;HPM_P2
2023/12/30 00:00:23;;;;;;;5.63;1.63;;;;;;;4.57;100.00;100503.94;4848509;29;20063;-80
2023/12/30 00:02:52;;;;;;;6.20;1.65;;;;;;;4.55;100.00;100496.06;4864051;29;20049;-81
2023/12/30 00:05:20;;;;;;;6.20;1.50;;;;;;;4.52;100.00;100508.16;4852730;29;20049;-81
2023/12/30 00:07:47;;;;;;;13.57;1.60;;;;;;;4.50;100.00;100489.91;4824221;29;20049;-82
2023/12/30 00:10:15;;;;;;;10.10;2.63;;;;;;;4.51;100.00;100495.97;4856612;29;20053;-81
2023/12/30 00:12:43;;;;;;;7.43;1.48;;;;;;;4.47;100.00;100490.69;4864960;29;20045;-79
2023/12/30 00:15:10;;;;;;;7.95;1.58;;;;;;;4.47;100.00;100501.13;4857336;29;20045;-79
2023/12/30 00:17:38;;;;;;;8.30;1.90;;;;;;;4.50;100.00;100500.34;4873629;29;20048;-80
2023/12/30 00:20:06;;;;;;;12.40;1.80;;;;;;;4.50;100.00;100508.16;4874246;29;20056;-81
2023/12/30 00:22:33;;;;;;;8.20;1.35;;;;;;;4.52;100.00;100506.47;4824515;29;20057;-80
2023/12/30 00:25:01;;;;;;;13.23;1.73;;;;;;;4.52;100.00;100516.91;4874839;29;20048;-81
2023/12/30 00:27:28;;;;;;;9.63;1.80;;;;;;;4.53;100.00;100510.81;4863289;29;20060;-80
2023/12/30 00:29:56;;;;;;;8.07;2.60;;;;;;;4.53;100.00;100523.88;4850819;29;20060;-80
2023/12/30 00:32:23;;;;;;;10.73;1.92;;;;;;;4.54;100.00;100523.03;4856517;29;21570;-81
2023/12/30 00:34:51;;;;;;;15.43;1.67;;;;;;;4.56;100.00;100523.06;4876948;29;20048;-81
2023/12/30 00:37:20;;;;;;;11.80;1.75;;;;;;;4.57;100.00;100525.69;4835541;29;20082;-80
2023/12/30 00:39:49;;;;;;;10.75;1.88;;;;;;;4.58;100.00;100522.25;4876274;29;20044;-80
2023/12/30 00:42:16;;;;;;;9.13;1.98;;;;;;;4.61;100.00;100518.81;4856645;29;20052;-81
2023/12/30 00:44:45;;;;;;;10.40;1.55;;;;;;;4.62;100.00;100529.28;4852116;29;20048;-79
2023/12/30 00:47:14;;;;;;;8.00;1.48;;;;;;;4.65;100.00;100533.69;4842577;29;20518;-81
2023/12/30 00:49:41;;;;;;;11.43;2.05;;;;;;;4.66;100.00;100528.50;4864342;29;20048;-82
2023/12/30 00:52:09;;;;;;;12.80;3.00;;;;;;;4.68;100.00;100520.72;4856627;29;20455;-80
2023/12/30 00:54:36;;;;;;;8.25;1.83;;;;;;;4.71;100.00;100525.09;4837498;29;20045;-81
2023/12/30 00:57:14;;;;;;;8.88;1.77;;;;;;;4.76;100.00;100523.50;4856748;29;20057;-80
2023/12/30 00:59:43;;;;;;;10.35;2.58;;;;;;;4.80;100.00;100526.22;4848357;29;20530;-80
2023/12/30 01:02:10;;;;;;;8.07;2.05;;;;;;;4.81;100.00;100527.09;4863663;29;20076;-80
2023/12/30 01:04:38;;;;;;;13.60;2.38;;;;;;;4.82;100.00;100532.34;4847429;29;20808;-81
2023/12/30 01:07:05;;;;;;;15.18;2.38;;;;;;;4.82;100.00;100529.75;4856539;29;20060;-81
2023/12/30 01:09:33;;;;;;;13.15;2.10;;;;;;;4.83;100.00;100530.59;4835037;29;20052;-80
2023/12/30 01:12:01;;;;;;;10.52;1.75;;;;;;;4.84;100.00;100521.94;4875615;29;20061;-80
2023/12/30 01:14:29;;;;;;;7.85;1.50;;;;;;;4.84;100.00;100524.56;4863566;29;20061;-80
2023/12/30 01:16:56;;;;;;;8.27;2.20;;;;;;;4.84;100.00;100537.59;4867714;29;20049;-80
2023/12/30 01:19:24;;;;;;;14.13;2.20;;;;;;;4.84;100.00;100537.59;4847953;29;20053;-80
2023/12/30 01:21:52;;;;;;;13.27;2.47;;;;;;;4.84;100.00;100535.00;4855484;29;20104;-81
2023/12/30 01:24:19;;;;;;;13.77;1.90;;;;;;;4.83;100.00;100541.94;4831217;29;28517;-82
2023/12/30 01:26:47;;;;;;;3.25;1.50;;;;;;;4.82;100.00;100541.88;4871730;29;20526;-80
2023/12/30 01:29:14;;;;;;;8.98;1.85;;;;;;;4.81;100.00;100534.91;4858421;29;20078;-81
2023/12/30 01:31:42;;;;;;;9.57;2.53;;;;;;;4.80;100.00;100544.50;4868423;29;20051;-81
2023/12/30 01:34:09;;;;;;;8.13;1.75;;;;;;;4.78;100.00;100538.34;4854661;29;20062;-81
2023/12/30 01:36:37;;;;;;;13.13;2.38;;;;;;;4.78;100.00;100540.06;4870801;29;20057;-81
2023/12/30 01:39:05;;;;;;;11.32;2.55;;;;;;;4.77;100.00;100551.38;4842207;29;20053;-80
2023/12/30 01:41:32;;;;;;;8.13;2.22;;;;;;;4.77;100.00;100554.84;4853919;29;20570;-80
2023/12/30 01:43:59;;;;;;;15.57;2.00;;;;;;;4.77;100.00;100544.41;4858357;29;20061;-80
2023/12/30 01:46:28;;;;;;;12.15;2.72;;;;;;;4.78;100.00;100554.03;4848347;29;20057;-81
2023/12/30 01:48:56;;;;;;;7.28;1.40;;;;;;;4.78;100.00;100546.19;4857542;29;20530;-81
2023/12/30 01:51:24;;;;;;;6.82;1.70;;;;;;;4.78;100.00;100546.19;4850820;29;20049;-80
2023/12/30 01:53:55;;;;;;;9.07;2.38;;;;;;;4.78;100.00;100558.34;4865436;29;20045;-80
2023/12/30 01:56:24;;;;;;;5.70;1.50;;;;;;;4.78;100.00;100542.66;4824586;29;20064;-81
2023/12/30 01:58:52;;;;;;;12.65;1.92;;;;;;;4.78;100.00;100550.50;4842397;29;20053;-81
2023/12/30 02:01:22;;;;;;;12.38;2.20;;;;;;;4.81;100.00;100546.25;4855405;29;20049;-80
2023/12/30 02:03:50;;;;;;;11.73;2.35;;;;;;;4.81;100.00;100547.97;4865892;29;20064;-80
2023/12/30 02:06:18;;;;;;;10.98;2.25;;;;;;;4.83;100.00;100548.88;4863589;29;20110;-82
2023/12/30 02:08:46;;;;;;;8.55;2.00;;;;;;;4.86;100.00;100548.97;4873899;29;20056;-82
2023/12/30 02:11:15;;;;;;;11.10;2.05;;;;;;;4.88;100.00;100553.34;4818030;29;20062;-82
2023/12/30 02:13:46;;;;;;;9.02;2.10;;;;;;;4.91;100.00;100568.19;4855418;29;20060;-80
2023/12/30 02:16:14;;;;;;;10.38;1.73;;;;;;;4.94;100.00;100568.28;4857463;29;20053;-79
2023/12/30 02:18:42;;;;;;;14.35;2.25;;;;;;;4.93;100.00;100566.50;4866215;29;20398;-80
2023/12/30 02:21:09;;;;;;;12.40;2.88;;;;;;;4.93;100.00;100568.25;4852028;29;20064;-81
2023/12/30 02:23:36;;;;;;;12.32;2.22;;;;;;;4.92;100.00;100580.41;4856266;29;20049;-81
2023/12/30 02:26:07;;;;;;;7.75;2.28;;;;;;;4.92;100.00;100580.41;4857055;29;20045;-81
2023/12/30 02:28:35;;;;;;;10.15;1.95;;;;;;;4.92;100.00;100583.03;4828887;29;20048;-80
2023/12/30 02:31:03;;;;;;;10.77;2.22;;;;;;;4.91;100.00;100591.69;4858475;29;20131;-81
2023/12/30 02:33:31;;;;;;;10.27;2.38;;;;;;;4.92;100.00;100597.81;4848844;29;20510;-80
2023/12/30 02:35:59;;;;;;;17.02;2.80;;;;;;;4.94;100.00;100604.84;4860206;29;20045;-80
2023/12/30 02:38:26;;;;;;;12.90;2.40;;;;;;;4.96;100.00;100595.31;4848465;29;20423;-80
2023/12/30 02:40:53;;;;;;;20.02;2.58;;;;;;;5.00;100.00;100607.56;4875926;29;20049;-80
2023/12/30 02:43:24;;;;;;;11.38;2.53;;;;;;;5.04;100.00;100609.41;4823346;29;20650;-82
2023/12/30 02:45:51;;;;;;;15.85;2.30;;;;;;;5.09;100.00;100601.69;4859979;29;20049;-82
2023/12/30 02:48:19;;;;;;;11.38;2.15;;;;;;;5.14;100.00;100609.59;4872792;29;20049;-80
2023/12/30 02:50:46;;;;;;;11.45;2.10;;;;;;;5.18;100.00;100607.09;4867734;29;20053;-81
2023/12/30 02:53:14;;;;;;;8.07;2.10;;;;;;;5.22;100.00;100600.22;4850232;29;20060;-81
2023/12/30 02:55:41;;;;;;;11.50;2.38;;;;;;;5.25;100.00;100613.31;4883055;29;20048;-81
2023/12/30 02:58:09;;;;;;;10.55;2.15;;;;;;;5.28;100.00;100616.88;4875331;29;20048;-83
2023/12/30 03:00:36;;;;;;;9.82;2.63;;;;;;;5.32;100.00;100623.06;4824770;29;20052;-81
2023/12/30 03:03:04;;;;;;;15.13;2.50;;;;;;;5.34;100.00;100621.34;4868118;29;20048;-82
2023/12/30 03:05:32;;;;;;;8.70;2.15;;;;;;;5.36;100.00;100618.78;4843382;29;20056;-80
2023/12/30 03:08:00;;;;;;;14.13;2.10;;;;;;;5.37;100.00;100616.22;4836901;29;20057;-81
2023/12/30 03:10:29;;;;;;;9.45;2.20;;;;;;;5.40;100.00;100620.59;4861865;29;20061;-80
2023/12/30 03:12:56;;;;;;;11.07;2.58;;;;;;;5.41;100.00;100615.41;4874479;29;20056;-81
2023/12/30 03:15:25;;;;;;;11.35;2.03;;;;;;;5.42;100.00;100619.78;4827154;29;20049;-81
2023/12/30 03:17:52;;;;;;;14.27;2.28;;;;;;;5.42;100.00;100617.16;4860004;29;20045;-82
2023/12/30 03:20:20;;;;;;;12.27;2.20;;;;;;;5.46;100.00;100621.63;4842466;29;20053;-82
2023/12/30 03:22:47;;;;;;;14.82;2.50;;;;;;;5.49;100.00;100625.16;4854799;29;20052;-82
2023/12/30 03:25:15;;;;;;;11.32;2.50;;;;;;;5.50;100.00;100625.19;4843161;29;20061;-81
2023/12/30 03:27:43;;;;;;;12.13;2.53;;;;;;;5.53;100.00;100637.44;4854969;29;20064;-82
2023/12/30 03:30:11;;;;;;;13.30;3.25;;;;;;;5.56;100.00;100633.16;4858723;29;20064;-80
2023/12/30 03:32:38;;;;;;;15.35;2.40;;;;;;;5.57;100.00;100628.78;4816823;29;20049;-81
2023/12/30 03:35:06;;;;;;;11.93;2.28;;;;;;;5.58;100.00;100627.94;4843013;29;20080;-81
2023/12/30 03:37:34;;;;;;;12.52;3.03;;;;;;;5.60;100.00;100621.03;4852411;29;20064;-82
2023/12/30 03:40:02;;;;;;;11.07;2.33;;;;;;;5.62;100.00;100632.38;4842778;29;20076;-82
2023/12/30 03:42:30;;;;;;;13.50;2.45;;;;;;;5.63;100.00;100631.50;4854427;29;20060;-81
2023/12/30 03:44:57;;;;;;;11.57;2.75;;;;;;;5.65;100.00;100635.03;4841243;29;20058;-81
2023/12/30 03:47:25;;;;;;;10.85;2.13;;;;;;;5.66;100.00;100628.97;4822147;29;20045;-79
2023/12/30 03:49:52;;;;;;;10.23;1.88;;;;;;;5.67;100.00;100630.72;4857671;29;20054;-81
2023/12/30 03:52:20;;;;;;;10.25;1.80;;;;;;;5.69;100.00;100642.13;4843293;29;20050;-82
2023/12/30 03:54:47;;;;;;;13.60;2.05;;;;;;;5.70;100.00;100633.41;4840768;29;20054;-83
2023/12/30 03:57:14;;;;;;;13.88;2.15;;;;;;;5.72;100.00;100641.28;4853248;29;20055;-80
2023/12/30 03:59:42;;;;;;;12.68;2.17;;;;;;;5.74;100.00;100630.00;4844961;29;20061;-81
2023/12/30 04:02:10;;;;;;;12.80;2.38;;;;;;;5.78;100.00;100644.88;4812659;29;20058;-80
2023/12/30 04:04:37;;;;;;;15.38;3.90;;;;;;;5.80;100.00;100629.22;4867662;29;20064;-82
2023/12/30 04:07:05;;;;;;;11.50;2.47;;;;;;;5.83;100.00;100640.63;4843157;29;20038;-82
2023/12/30 04:09:33;;;;;;;18.40;2.53;;;;;;;5.84;100.00;100639.78;4844481;29;20061;-81
2023/12/30 04:12:00;;;;;;;9.98;2.35;;;;;;;5.84;100.00;100642.41;4844348;29;20064;-80
2023/12/30 04:14:27;;;;;;;9.88;2.20;;;;;;;5.84;100.00;100641.50;4864264;29;20044;-80
2023/12/30 04:16:55;;;;;;;13.07;2.20;;;;;;;5.85;100.00;100648.50;4871260;29;20042;-82
2023/12/30 04:19:24;;;;;;;8.70;2.38;;;;;;;5.86;100.00;100647.69;4807604;29;20076;-82
2023/12/30 04:21:53;;;;;;;13.98;2.40;;;;;;;5.85;100.00;100652.00;4850740;29;20057;-83
2023/12/30 04:24:22;;;;;;;13.38;2.58;;;;;;;5.86;100.00;100645.94;4855632;29;20053;-82
2023/12/30 04:26:51;;;;;;;9.27;2.00;;;;;;;5.88;100.00;100645.06;4848292;29;20052;-82
2023/12/30 04:29:18;;;;;;;9.40;2.20;;;;;;;5.85;100.00;100646.78;4859400;29;20056;-82
2023/12/30 04:31:46;;;;;;;17.17;3.03;;;;;;;5.83;100.00;100647.59;4850494;29;20045;-80
2023/12/30 04:34:13;;;;;;;11.85;2.72;;;;;;;5.83;100.00;100648.47;4827430;29;20052;-83
2023/12/30 04:36:41;;;;;;;13.18;2.45;;;;;;;5.84;100.00;100650.25;4868589;29;20403;-81
2023/12/30 04:39:08;;;;;;;16.27;2.80;;;;;;;5.84;100.00;100665.94;4859966;29;20046;-82
2023/12/30 04:41:36;;;;;;;13.25;2.50;;;;;;;5.86;100.00;100659.00;4848886;29;20056;-81
2023/12/30 04:44:03;;;;;;;13.80;2.58;;;;;;;5.84;100.00;100671.19;4854329;29;20053;-81
2023/12/30 04:46:31;;;;;;;15.57;2.53;;;;;;;5.81;100.00;100680.69;4855394;29;20555;-81
2023/12/30 04:49:02;;;;;;;11.07;2.40;;;;;;;5.79;100.00;100685.00;4812531;29;20065;-80
2023/12/30 04:51:32;;;;;;;12.27;2.17;;;;;;;5.76;100.00;100679.72;4857369;29;20766;-80
2023/12/30 04:54:00;;;;;;;13.30;2.30;;;;;;;5.74;100.00;100689.25;4832572;29;20061;-82
2023/12/30 04:56:28;;;;;;;9.95;2.47;;;;;;;5.72;100.00;100693.56;4852625;29;20049;-80
2023/12/30 04:58:56;;;;;;;11.30;3.20;;;;;;;5.71;100.00;100671.78;4834054;29;20048;-81
2023/12/30 05:01:24;;;;;;;10.57;2.60;;;;;;;5.70;100.00;100677.84;4833330;29;23840;-80
2023/12/30 05:03:53;;;;;;;16.15;2.95;;;;;;;5.67;100.00;100685.63;4846065;29;20492;-81
2023/12/30 05:06:21;;;;;;;13.50;2.58;;;;;;;5.69;100.00;100683.03;4824696;29;20045;-80
2023/12/30 05:08:50;;;;;;;13.70;2.05;;;;;;;5.71;100.00;100697.03;4869226;29;20049;-80
2023/12/30 05:11:17;;;;;;;11.75;2.17;;;;;;;5.72;100.00;100702.28;4848333;29;20060;-80
2023/12/30 05:13:46;;;;;;;14.30;2.50;;;;;;;5.75;100.00;100704.13;4869847;29;20506;-81
2023/12/30 05:16:13;;;;;;;18.85;3.20;;;;;;;5.77;100.00;100702.41;4854449;29;20117;-82
2023/12/30 05:18:41;;;;;;;15.65;2.70;;;;;;;5.77;100.00;100703.28;4860508;29;20045;-81
2023/12/30 05:21:14;;;;;;;10.48;2.17;;;;;;;5.78;100.00;100696.31;4852488;29;20060;-81
2023/12/30 05:23:42;;;;;;;10.93;2.35;;;;;;;5.81;100.00;100704.22;4867824;29;20053;-81
2023/12/30 05:26:14;;;;;;;10.48;1.85;;;;;;;5.80;100.00;100705.06;4866567;29;20053;-82
2023/12/30 05:28:42;;;;;;;9.25;2.13;;;;;;;5.83;100.00;100710.38;4849746;29;20052;-80
2023/12/30 05:31:09;;;;;;;14.02;2.80;;;;;;;5.82;100.00;100709.50;4859611;29;20415;-81
2023/12/30 05:33:37;;;;;;;12.07;2.10;;;;;;;5.82;100.00;100725.19;4832790;29;20057;-82
2023/12/30 05:36:05;;;;;;;8.48;2.03;;;;;;;5.82;100.00;100716.44;4810819;29;20064;-80
2023/12/30 05:38:32;;;;;;;7.55;2.60;;;;;;;5.82;100.00;100725.19;4850925;29;20064;-80
2023/12/30 05:41:00;;;;;;;13.43;2.92;;;;;;;5.82;100.00;100737.34;4865944;29;20047;-81
2023/12/30 05:43:27;;;;;;;8.90;2.28;;;;;;;5.77;100.00;100713.75;4866105;29;20049;-80
2023/12/30 05:45:55;;;;;;;11.02;2.13;;;;;;;5.77;100.00;100728.56;4869211;29;20394;-82
2023/12/30 05:48:23;;;;;;;11.02;2.30;;;;;;;5.75;100.00;100732.88;4870955;29;20057;-81
2023/12/30 05:50:51;;;;;;;12.77;2.65;;;;;;;5.75;100.00;100735.50;4859651;29;20419;-81
2023/12/30 05:53:19;;;;;;;12.82;2.45;;;;;;;5.73;100.00;100745.00;4819101;29;20695;-80
2023/12/30 05:55:47;;;;;;;11.55;2.50;;;;;;;5.70;100.00;100743.22;4852903;29;20057;-81
2023/12/30 05:58:14;;;;;;;12.70;3.50;;;;;;;5.68;100.00;100744.03;4856542;29;20053;-82
2023/12/30 06:00:42;;;;;;;12.32;2.50;;;;;;;5.65;100.00;100743.13;4857254;29;20061;-80
2023/12/30 06:03:09;;;;;;;15.05;2.55;;;;;;;5.64;100.00;100745.72;4854796;29;20057;-82
2023/12/30 06:05:37;;;;;;;11.52;2.08;;;;;;;5.64;100.00;100740.47;4873501;29;20049;-80
2023/12/30 06:08:04;;;;;;;12.80;2.38;;;;;;;5.63;100.00;100742.22;4831897;29;20045;-82
2023/12/30 06:10:32;;;;;;;13.20;3.35;;;;;;;5.60;100.00;100743.88;4845095;29;20076;-80
2023/12/30 06:13:00;;;;;;;9.93;2.47;;;;;;;5.58;100.00;100745.59;4862665;29;20056;-81
2023/12/30 06:15:28;;;;;;;11.55;2.20;;;;;;;5.56;100.00;100762.97;4839789;29;20065;-80
2023/12/30 06:17:56;;;;;;;10.88;2.60;;;;;;;5.56;100.00;100748.16;4855265;29;20062;-82
2023/12/30 06:20:25;;;;;;;9.05;2.38;;;;;;;5.56;100.00;100758.63;4859703;29;20053;-81
2023/12/30 06:22:52;;;;;;;15.50;2.90;;;;;;;5.58;100.00;100759.53;4832073;29;20056;-80
2023/12/30 06:25:20;;;;;;;15.57;3.13;;;;;;;5.59;100.00;100768.25;4859125;29;20060;-81
2023/12/30 06:27:47;;;;;;;18.70;4.03;;;;;;;5.60;100.00;100767.41;4852271;29;20052;-80
2023/12/30 06:30:15;;;;;;;14.15;2.38;;;;;;;5.60;100.00;100770.91;4857112;29;20057;-81
2023/12/30 06:32:42;;;;;;;9.73;2.45;;;;;;;5.62;100.00;100769.19;4858520;29;20073;-81
2023/12/30 06:35:10;;;;;;;12.15;2.50;;;;;;;5.63;100.00;100773.59;4874670;29;20056;-81
2023/12/30 06:37:38;;;;;;;13.95;2.30;;;;;;;5.64;100.00;100766.63;4853499;29;20064;-81
2023/12/30 06:40:06;;;;;;;14.20;3.15;;;;;;;5.63;100.00;100770.06;4836535;29;20056;-81
2023/12/30 06:42:34;;;;;;;14.35;2.55;;;;;;;5.63;100.00;100775.28;4860861;29;20096;-81
2023/12/30 06:45:02;;;;;;;17.20;2.58;;;;;;;5.63;100.00;100767.47;4860387;29;20423;-82
2023/12/30 06:47:30;;;;;;;17.80;2.75;;;;;;;5.63;100.00;100775.28;4871164;29;20491;-81
2023/12/30 06:49:57;;;;;;;14.85;2.58;;;;;;;5.64;100.00;100777.06;4859408;29;20064;-81
2023/12/30 06:52:25;;;;;;;14.30;2.53;;;;;;;5.65;100.00;100768.38;4863470;29;20506;-82
2023/12/30 06:54:54;;;;;;;7.88;2.40;;;;;;;5.65;100.00;100779.72;4838292;29;20060;-82
2023/12/30 06:57:36;;;;;;;10.70;3.35;;;;;;;5.66;100.00;100780.59;4858738;29;20044;-81
2023/12/30 07:00:05;;;;;;;20.77;3.70;;;;;;;5.67;100.00;100782.34;4868965;29;20053;-82
2023/12/30 07:02:33;;;;;;;13.48;2.13;;;;;;;5.69;100.00;100796.38;4855302;29;20052;-80
2023/12/30 07:05:00;;;;;;;8.90;2.30;;;;;;;5.70;100.00;100800.72;4876131;29;20072;-81
2023/12/30 07:07:28;;;;;;;16.42;2.88;;;;;;;5.71;100.00;100794.66;4863752;29;20065;-81
2023/12/30 07:09:55;;;;;;;13.18;2.90;;;;;;;5.71;100.00;100807.75;4850804;29;20048;-80
2023/12/30 07:12:23;;;;;;;15.13;2.20;;;;;;;5.73;100.00;100821.72;4849984;29;20073;-80
2023/12/30 07:14:50;;;;;;;16.15;2.67;;;;;;;5.74;100.00;100830.44;4841595;29;20048;-80
2023/12/30 07:17:17;;;;;;;12.95;2.58;;;;;;;5.75;100.00;100832.22;4854791;29;20037;-81
2023/12/30 07:19:45;;;;;;;12.00;2.75;;;;;;;5.75;100.00;100833.09;4860749;29;20049;-81
2023/12/30 07:22:12;;;;;;;15.68;2.28;;;;;;;5.76;100.00;100839.22;4877968;29;20065;-81
2023/12/30 07:24:40;;;;;;;10.68;2.38;;;;;;;5.75;100.00;100838.34;4814814;29;20053;-80
2023/12/30 07:27:07;;;;;;;17.42;3.25;;;;;;;5.75;100.00;100842.69;4861167;29;20045;-80
2023/12/30 07:29:34;;;;;;;14.13;2.28;;;;;;;5.75;100.00;100840.06;4876680;29;20119;-80
2023/12/30 07:32:02;;;;;;;20.35;2.65;;;;;;;5.75;100.00;100846.19;4851856;29;20625;-80
2023/12/30 07:34:29;;;;;;;10.90;3.00;;;;;;;5.75;100.00;100861.00;4850140;29;20052;-82
2023/12/30 07:37:01;;;;;;;13.38;3.25;;;;;;;5.76;100.00;100857.50;4876041;29;20589;-81
2023/12/30 07:39:28;;;;;;;12.85;2.75;;;;;;;5.77;100.00;100864.53;4862218;29;20077;-82
2023/12/30 07:41:56;;;;;;;11.68;2.78;;;;;;;5.77;100.00;100870.63;4828536;29;20056;-81
2023/12/30 07:44:24;;;;;;;13.35;2.50;;;;;;;5.76;100.00;100879.31;4852943;29;20049;-82
2023/12/30 07:46:52;;;;;;;13.07;2.78;;;;;;;5.77;100.00;100868.03;4849016;29;20078;-81
2023/12/30 07:49:19;;;;;;;13.85;3.00;;;;;;;5.76;100.00;100878.44;4852293;29;20041;-80
2023/12/30 07:51:47;;;;;;;16.15;2.80;;;;;;;5.72;100.00;100874.88;4874095;29;20494;-81
2023/12/30 07:54:15;;;;;;;18.50;2.28;;;;;;;5.69;100.00;100872.19;4859937;29;20080;-80
2023/12/30 07:56:43;;;;;;;15.90;3.17;;;;;;;5.65;100.00;100881.69;4831723;29;20049;-79
2023/12/30 07:59:12;;;;;;;14.55;2.33;;;;;;;5.63;100.00;100883.41;4865011;29;20045;-82
2023/12/30 08:01:43;;;;;;;15.55;3.08;;;;;;;5.63;100.00;100885.09;4846477;29;20064;-79
2023/12/30 08:04:11;;;;;;;16.63;3.03;;;;;;;5.61;100.00;100882.47;4854509;29;20076;-81
2023/12/30 08:06:40;;;;;;;15.77;3.17;;;;;;;5.61;100.00;100892.03;4862522;29;20055;-81
2023/12/30 08:09:09;;;;;;;20.02;2.83;;;;;;;5.59;100.00;100902.44;4859008;29;20407;-80
2023/12/30 08:11:37;;;;;;;11.02;2.95;;;;;;;5.59;100.00;100909.41;4828931;29;20052;-81
2023/12/30 08:14:24;;;;;;;14.80;3.55;;;;;;;5.59;100.00;100906.78;4849515;29;20074;-80
2023/12/30 08:16:52;;;;;;;12.82;3.25;;;;;;;5.59;100.00;100918.13;4863214;29;20049;-81
2023/12/30 08:19:19;;;;;;;17.65;3.22;;;;;;;5.62;100.00;100923.44;4859363;29;20483;-79
2023/12/30 08:21:47;;;;;;;20.45;3.72;;;;;;;5.64;100.00;100923.47;4846817;29;20500;-81
2023/12/30 08:24:16;;;;;;;10.05;2.30;;;;;;;5.65;100.00;100930.47;4863179;29;20053;-82
2023/12/30 08:26:44;;;;;;;5.85;1.80;;;;;;;5.67;100.00;100939.22;4839930;29;20049;-82
2023/12/30 08:29:14;;;;;;;13.05;2.80;;;;;;;5.69;100.00;100937.56;4852784;29;20518;-80
2023/12/30 08:31:45;;;;;;;14.95;2.50;;;;;;;5.71;100.00;100942.81;4841317;29;20056;-82
2023/12/30 08:34:17;;;;;;;13.88;2.67;;;;;;;5.72;100.00;100952.44;4858695;29;20059;-83
2023/12/30 08:36:46;;;;;;;9.00;2.67;;;;;;;5.73;100.00;100951.56;4847386;29;20064;-81
2023/12/30 08:39:14;;;;;;;11.25;2.15;;;;;;;5.73;100.00;100949.84;4854118;29;20046;-81
2023/12/30 08:41:41;;;;;;;15.25;3.40;;;;;;;5.77;100.00;100953.44;4865481;29;20081;-80
2023/12/30 08:44:09;;;;;;;9.07;2.30;;;;;;;5.77;100.00;100951.69;4843044;29;20056;-81
2023/12/30 08:46:36;;;;;;;13.50;2.80;;;;;;;5.77;100.00;100951.69;4864823;29;20052;-82
2023/12/30 08:49:04;;;;;;;16.25;3.00;;;;;;;5.77;100.00;100956.94;4856238;29;20060;-81
2023/12/30 08:51:36;;;;;;;11.38;2.50;;;;;;;5.79;100.00;100952.63;4847449;29;20064;-81
2023/12/30 08:54:04;;;;;;;9.50;2.03;;;;;;;5.80;100.00;100953.50;4857158;29;20053;-80
2023/12/30 08:56:35;;;;;;;15.68;2.50;;;;;;;5.81;100.00;100958.75;4860008;29;20452;-80
2023/12/30 08:59:03;;;;;;;12.25;2.65;;;;;;;5.83;100.00;100950.97;4815269;29;21328;-80
2023/12/30 09:01:30;;;;;;;8.60;2.20;;;;;;;5.84;100.00;100964.09;4858067;29;20108;-82
2023/12/30 09:03:59;;;;;;;17.27;2.65;;;;;;;5.86;100.00;100962.38;4842668;29;20065;-80
2023/12/30 09:06:28;;;;;;;13.98;2.55;;;;;;;5.89;100.00;100971.16;4863142;29;20059;-81
2023/12/30 09:08:56;;;;;;;9.50;2.08;;;;;;;5.90;100.00;100970.28;4857618;29;20729;-80
2023/12/30 09:11:23;;;;;;;18.42;3.38;;;;;;;5.90;100.00;100973.81;4853287;29;20057;-80
2023/12/30 09:13:54;;;;;;;16.45;2.83;;;;;;;5.90;100.00;100965.97;4815782;29;20443;-81
2023/12/30 09:16:21;;;;;;;16.40;3.45;;;;;;;5.92;100.00;100966.88;4868388;29;20045;-80
2023/12/30 09:18:50;;;;;;;16.10;2.35;;;;;;;5.95;100.00;100969.59;4855914;29;20049;-79
2023/12/30 09:21:18;;;;;;;12.25;2.25;;;;;;;5.97;100.00;100978.38;4858109;29;20065;-81
2023/12/30 09:23:45;;;;;;;9.82;2.08;;;;;;;5.97;100.00;100981.00;4861816;29;20048;-80
2023/12/30 09:26:15;;;;;;;13.95;2.42;;;;;;;6.00;100.00;100986.28;4841150;29;20053;-80
2023/12/30 09:28:43;;;;;;;13.27;2.85;;;;;;;6.01;100.00;100990.69;4859919;29;20045;-81
2023/12/30 09:31:11;;;;;;;13.23;2.58;;;;;;;6.04;100.00;100987.25;4827949;29;20049;-80
2023/12/30 09:33:38;;;;;;;8.30;2.00;;;;;;;6.04;100.00;100982.00;4846195;29;20049;-80
2023/12/30 09:36:07;;;;;;;15.93;2.35;;;;;;;6.05;100.00;100991.63;4849013;29;20076;-80
2023/12/30 09:38:38;;;;;;;12.10;3.03;;;;;;;6.03;100.00;100991.59;4857798;29;20588;-82
2023/12/30 09:41:06;;;;;;;12.80;2.28;;;;;;;6.04;100.00;101001.19;4860943;29;20063;-80
2023/12/30 09:43:34;;;;;;;8.85;2.42;;;;;;;6.07;100.00;101002.13;4864424;29;20069;-81
2023/12/30 09:46:03;;;;;;;14.40;2.67;;;;;;;6.08;100.00;101010.00;4838844;29;20053;-82
2023/12/30 09:48:34;;;;;;;14.45;2.63;;;;;;;6.11;100.00;101015.31;4851628;29;20037;-80
2023/12/30 09:51:02;;;;;;;14.77;3.08;;;;;;;6.12;100.00;101017.06;4847138;29;20052;-80
2023/12/30 09:53:30;;;;;;;12.25;1.70;;;;;;;6.14;100.00;101018.00;4851669;29;20049;-80
2023/12/30 09:55:58;;;;;;;15.48;2.20;;;;;;;6.16;100.00;101021.56;4842774;29;20740;-80
2023/12/30 09:58:26;;;;;;;17.27;2.70;;;;;;;6.15;100.00;101017.16;4867681;29;20056;-81
2023/12/30 10:00:53;;;;;;;15.38;2.60;;;;;;;6.19;100.00;101023.34;4814628;29;20048;-82
2023/12/30 10:03:23;;;;;;;10.57;2.13;;;;;;;6.17;100.00;101023.31;4855801;29;20057;-80
2023/12/30 10:05:54;;;;;;;12.02;2.53;;;;;;;6.18;100.00;101026.81;4850722;29;20061;-80
2023/12/30 10:08:23;;;;;;;16.90;2.25;;;;;;;6.18;100.00;101021.56;4865513;29;20084;-81
2023/12/30 10:10:51;;;;;;;12.35;2.33;;;;;;;6.18;100.00;101022.47;4855216;29;20500;-79
2023/12/30 10:13:22;;;;;;;12.00;2.33;;;;;;;6.16;100.00;101039.88;4845590;29;20056;-81
2023/12/30 10:15:50;;;;;;;14.90;2.10;;;;;;;6.15;100.00;101038.09;4831058;29;20522;-79
2023/12/30 10:18:19;;;;;;;11.77;2.33;;;;;;;6.14;100.00;101036.31;4857513;29;20036;-80
2023/12/30 10:20:47;;;;;;;9.57;2.13;;;;;;;6.14;100.00;101033.69;4845571;29;20056;-81
2023/12/30 10:23:14;;;;;;;14.93;2.40;;;;;;;6.13;100.00;101033.69;4863344;29;20056;-79
2023/12/30 10:25:45;;;;;;;8.57;1.85;;;;;;;6.15;100.00;101027.63;4862566;29;20060;-80
2023/12/30 10:28:13;;;;;;;13.80;2.80;;;;;;;6.17;100.00;101040.75;4878964;29;20818;-80
2023/12/30 10:30:40;;;;;;;6.97;2.13;;;;;;;6.21;100.00;101029.50;4861740;29;20407;-81
2023/12/30 10:33:14;;;;;;;11.25;2.70;;;;;;;6.25;100.00;101026.97;4820195;29;20061;-81
2023/12/30 10:35:46;;;;;;;14.80;2.05;;;;;;;6.31;100.00;101028.88;4850211;29;20053;-81
2023/12/30 10:38:14;;;;;;;12.15;2.53;;;;;;;6.37;100.00;101026.41;4863340;29;20053;-82
2023/12/30 10:40:43;;;;;;;10.23;2.00;;;;;;;6.42;100.00;101031.75;4841894;29;20046;-81
2023/12/30 10:43:12;;;;;;;14.35;2.95;;;;;;;6.48;100.00;101031.00;4886531;29;20052;-81
2023/12/30 10:45:40;;;;;;;14.25;2.33;;;;;;;6.50;100.00;101032.78;4852661;29;20420;-80
2023/12/30 10:48:08;;;;;;;9.27;2.15;;;;;;;6.55;100.00;101030.28;4852564;29;20523;-81
2023/12/30 10:50:38;;;;;;;13.98;2.30;;;;;;;6.60;100.00;101041.75;4877058;29;20052;-79
2023/12/30 10:53:10;;;;;;;12.32;2.40;;;;;;;6.66;100.00;101043.63;4856935;29;20067;-80
2023/12/30 10:55:47;;;;;;;9.77;2.03;;;;;;;6.71;100.00;101044.59;4859911;29;20064;-80
2023/12/30 10:58:18;;;;;;;13.80;2.53;;;;;;;6.77;100.00;101040.41;4887761;29;20052;-81
2023/12/30 11:00:52;;;;;;;8.48;2.20;;;;;;;6.81;100.00;101043.97;4870721;29;20041;-81
2023/12/30 11:03:21;;;;;;;6.50;1.55;;;;;;;6.85;100.00;101047.53;4845441;29;20422;-79
2023/12/30 11:06:03;;;;;;;6.55;2.08;;;;;;;6.85;100.00;101045.78;4880234;29;20542;-80
2023/12/30 11:08:31;;;;;;;11.35;3.47;;;;;;;6.87;100.00;101059.81;4858363;29;20053;-80
2023/12/30 11:11:02;;;;;;;6.85;1.83;;;;;;;6.91;100.00;101063.38;4869064;29;20072;-82
2023/12/30 11:13:34;;;;;;;10.82;2.00;;;;;;;6.93;100.00;101064.28;4877565;29;20045;-81
2023/12/30 11:16:19;;;;;;;9.93;1.85;;;;;;;6.94;100.00;101055.59;4884244;29;20060;-79
2023/12/30 11:18:49;;;;;;;8.95;2.08;;;;;;;6.95;100.00;101057.34;4838334;29;20044;-79
2023/12/30 11:21:40;;;;;;;12.80;1.88;;;;;;;6.99;100.00;101060.09;4897087;29;20634;-80
2023/12/30 11:24:09;;;;;;;11.40;2.55;;;;;;;7.03;100.00;101055.75;4878528;29;20130;-81